createdAt,value
2022-10-01T00:01:16.537Z,13.60
2022-10-01T00:03:43.840Z,13.32
2022-10-01T00:06:12.112Z,15.43
2022-10-01T00:08:41.320Z,16.92
2022-10-01T00:11:10.395Z,15.05
2022-10-01T00:13:36.972Z,11.82
2022-10-01T00:18:37.118Z,20.85
2022-10-01T00:21:11.762Z,22.92
2022-10-01T00:23:38.367Z,17.33
2022-10-01T00:28:41.082Z,15.27
2022-10-01T00:31:08.846Z,13.88
2022-10-01T00:33:36.171Z,13.02
2022-10-01T00:36:07.691Z,14.93
2022-10-01T00:38:34.611Z,12.68
2022-10-01T00:41:01.657Z,14.55
2022-10-01T00:43:38.811Z,14.18
2022-10-01T00:46:17.079Z,18.52
2022-10-01T00:48:58.169Z,17.05
2022-10-01T00:51:32.594Z,16.45
2022-10-01T00:54:08.311Z,17.13
2022-10-01T00:56:35.280Z,18.27
2022-10-01T00:59:02.418Z,18.08
2022-10-01T01:01:29.024Z,18.65
2022-10-01T01:03:56.634Z,19.75
2022-10-01T01:06:23.177Z,19.77
2022-10-01T01:11:33.049Z,16.98
2022-10-01T01:14:25.659Z,17.15
2022-10-01T01:16:59.736Z,14.95
2022-10-01T01:19:44.743Z,16.70
2022-10-01T01:22:13.989Z,16.38
2022-10-01T01:24:51.169Z,20.20
2022-10-01T01:27:23.387Z,22.08
2022-10-01T01:30:04.556Z,18.20
2022-10-01T01:32:34.617Z,19.20
2022-10-01T01:35:05.496Z,16.95
2022-10-01T01:37:37.998Z,22.73
2022-10-01T01:40:11.565Z,35.20
2022-10-01T01:42:41.393Z,20.85
2022-10-01T01:45:13.606Z,23.67
2022-10-01T01:47:42.113Z,21.55
2022-10-01T01:50:11.401Z,25.85
2022-10-01T01:52:38.396Z,24.45
2022-10-01T01:55:08.638Z,22.98
2022-10-01T01:57:44.045Z,21.20
2022-10-01T02:00:12.690Z,20.98
2022-10-01T02:02:43.893Z,21.05
2022-10-01T02:05:16.019Z,18.90
2022-10-01T02:08:02.626Z,19.02
2022-10-01T02:10:44.693Z,20.02
2022-10-01T02:13:45.863Z,18.08
2022-10-01T02:16:35.395Z,14.63
2022-10-01T02:19:08.228Z,14.23
2022-10-01T02:21:50.326Z,14.18
2022-10-01T02:24:31.371Z,15.77
2022-10-01T02:27:01.560Z,23.63
2022-10-01T02:29:29.507Z,17.25
2022-10-01T02:31:57.200Z,17.17
2022-10-01T02:34:29.003Z,14.70
2022-10-01T02:36:57.465Z,21.48
2022-10-01T02:39:28.486Z,15.63
2022-10-01T02:41:56.559Z,16.35
2022-10-01T02:44:31.220Z,17.35
2022-10-01T02:47:07.734Z,20.70
2022-10-01T02:49:36.216Z,21.27
2022-10-01T02:52:34.180Z,23.38
2022-10-01T02:55:05.176Z,25.80
2022-10-01T02:57:32.848Z,20.20
2022-10-01T03:00:09.793Z,19.67
2022-10-01T03:02:36.424Z,20.02
2022-10-01T03:05:04.179Z,18.63
2022-10-01T03:07:34.615Z,20.50
2022-10-01T03:10:04.752Z,24.73
2022-10-01T03:12:31.664Z,21.70
2022-10-01T03:14:58.119Z,28.23
2022-10-01T03:17:24.739Z,25.85
2022-10-01T03:22:22.420Z,27.63
2022-10-01T03:24:50.093Z,30.25
2022-10-01T03:27:17.529Z,28.70
2022-10-01T03:29:44.548Z,28.95
2022-10-01T03:32:12.070Z,29.02
2022-10-01T03:34:38.582Z,24.10
2022-10-01T03:39:32.688Z,23.35
2022-10-01T03:41:59.181Z,23.17
2022-10-01T03:46:52.070Z,21.30
2022-10-01T03:51:45.544Z,23.10
2022-10-01T03:54:12.753Z,18.42
2022-10-01T03:56:42.637Z,17.48
2022-10-01T03:59:10.950Z,15.57
2022-10-01T04:01:39.316Z,18.20
2022-10-01T04:04:06.629Z,19.40
2022-10-01T04:06:33.350Z,35.35
2022-10-01T04:08:59.840Z,22.08
2022-10-01T04:13:53.062Z,24.05
2022-10-01T04:16:19.668Z,24.35
2022-10-01T04:18:46.220Z,26.63
2022-10-01T04:23:39.362Z,27.88
2022-10-01T04:28:32.446Z,30.45
2022-10-01T04:31:17.692Z,28.48
2022-10-01T04:33:44.864Z,25.75
2022-10-01T04:36:12.026Z,29.85
2022-10-01T04:38:38.512Z,27.30
2022-10-01T04:43:31.529Z,26.85
2022-10-01T04:48:24.573Z,26.90
2022-10-01T04:53:17.546Z,33.58
2022-10-01T04:55:44.009Z,43.92
2022-10-01T04:58:10.533Z,28.88
2022-10-01T05:03:03.567Z,26.00
2022-10-01T05:07:59.485Z,25.60
2022-10-01T05:12:52.977Z,25.35
2022-10-01T05:15:19.800Z,23.75
2022-10-01T05:17:47.262Z,21.98
2022-10-01T05:20:19.958Z,24.48
2022-10-01T05:22:47.378Z,19.52
2022-10-01T05:25:14.145Z,21.80
2022-10-01T05:27:40.964Z,22.70
2022-10-01T05:30:12.365Z,22.02
2022-10-01T05:32:38.998Z,22.77
2022-10-01T05:35:07.698Z,20.55
2022-10-01T05:37:34.947Z,21.02
2022-10-01T05:40:01.943Z,21.13
2022-10-01T05:42:28.434Z,20.35
2022-10-01T05:47:22.870Z,24.25
2022-10-01T05:49:49.472Z,19.05
2022-10-01T05:54:42.957Z,19.60
2022-10-01T05:59:36.237Z,21.00
2022-10-01T06:02:04.197Z,23.55
2022-10-01T06:04:31.399Z,20.27
2022-10-01T06:06:58.097Z,19.80
2022-10-01T06:09:24.589Z,20.75
2022-10-01T06:14:17.510Z,21.92
2022-10-01T06:19:10.513Z,19.85
2022-10-01T06:24:04.089Z,16.23
2022-10-01T06:28:57.677Z,24.00
2022-10-01T06:31:24.352Z,24.30
2022-10-01T06:33:50.867Z,29.75
2022-10-01T06:36:17.443Z,27.60
2022-10-01T06:41:10.693Z,45.88
2022-10-01T06:43:37.202Z,42.22
2022-10-01T06:48:32.497Z,29.13
2022-10-01T06:50:59.666Z,22.00
2022-10-01T06:53:27.752Z,25.52
2022-10-01T06:55:54.584Z,20.77
2022-10-01T06:58:24.395Z,19.83
2022-10-01T07:00:51.065Z,19.92
2022-10-01T07:03:20.260Z,18.55
2022-10-01T07:05:48.069Z,17.02
2022-10-01T07:08:14.864Z,20.77
2022-10-01T07:10:41.861Z,20.08
2022-10-01T07:13:14.270Z,22.30
2022-10-01T07:15:40.806Z,23.98
2022-10-01T07:20:39.718Z,23.98
2022-10-01T07:23:11.950Z,31.30
2022-10-01T07:25:40.481Z,27.50
2022-10-01T07:28:15.917Z,29.15
2022-10-01T07:30:47.559Z,30.10
2022-10-01T07:33:18.092Z,31.83
2022-10-01T07:35:45.156Z,29.20
2022-10-01T07:38:11.604Z,28.77
2022-10-01T07:40:38.138Z,33.13
2022-10-01T07:45:31.470Z,26.00
2022-10-01T07:50:27.783Z,24.23
2022-10-01T07:52:56.197Z,22.23
2022-10-01T07:55:26.358Z,24.85
2022-10-01T07:57:58.056Z,27.75
2022-10-01T08:00:26.314Z,25.48
2022-10-01T08:02:56.025Z,25.42
2022-10-01T08:05:31.412Z,21.05
2022-10-01T08:07:59.867Z,26.05
2022-10-01T08:10:26.620Z,28.70
2022-10-01T08:12:59.797Z,26.88
2022-10-01T08:15:26.344Z,25.00
2022-10-01T08:20:21.450Z,33.83
2022-10-01T08:22:47.921Z,30.45
2022-10-01T08:27:40.910Z,25.98
2022-10-01T08:30:08.144Z,25.73
2022-10-01T08:32:34.660Z,28.20
2022-10-01T08:35:01.260Z,22.98
2022-10-01T08:37:29.152Z,22.58
2022-10-01T08:39:56.433Z,23.48
2022-10-01T08:42:34.170Z,20.95
2022-10-01T08:45:12.798Z,23.90
2022-10-01T08:47:43.781Z,24.90
2022-10-01T08:50:27.986Z,21.85
2022-10-01T08:53:02.455Z,27.13
2022-10-01T08:55:36.346Z,22.55
2022-10-01T08:58:09.956Z,21.73
2022-10-01T09:00:40.277Z,27.95
2022-10-01T09:03:11.784Z,25.65
2022-10-01T09:05:40.970Z,24.23
2022-10-01T09:08:43.706Z,21.02
2022-10-01T09:11:31.324Z,20.25
2022-10-01T09:14:15.881Z,23.08
2022-10-01T09:16:55.689Z,23.95
2022-10-01T09:19:35.091Z,22.85
2022-10-01T09:22:26.147Z,28.02
2022-10-01T09:25:07.009Z,24.00
2022-10-01T09:27:34.088Z,18.65
2022-10-01T09:30:12.185Z,22.45
2022-10-01T09:32:46.972Z,21.88
2022-10-01T09:35:33.124Z,19.42
2022-10-01T09:38:24.249Z,26.15
2022-10-01T09:40:54.743Z,24.52
2022-10-01T09:43:28.641Z,25.27
2022-10-01T09:45:55.269Z,22.42
2022-10-01T09:51:08.698Z,20.17
2022-10-01T09:53:41.257Z,19.33
2022-10-01T09:56:19.019Z,18.08
2022-10-01T09:58:54.293Z,17.30
2022-10-01T10:01:28.417Z,17.15
2022-10-01T10:03:57.399Z,20.55
2022-10-01T10:06:29.841Z,16.67
2022-10-01T10:08:58.402Z,16.30
2022-10-01T10:11:28.366Z,16.15
2022-10-01T10:14:00.269Z,14.07
2022-10-01T10:32:47.158Z,10.23
2022-10-01T10:35:19.111Z,11.60
2022-10-01T10:37:49.684Z,11.32
2022-10-01T10:40:28.434Z,9.32
2022-10-01T10:42:58.520Z,11.63
2022-10-01T10:45:33.182Z,10.70
2022-10-01T10:48:03.847Z,18.15
2022-10-01T10:50:33.757Z,9.73
2022-10-01T10:53:11.157Z,8.65
2022-10-01T10:55:39.097Z,10.30
2022-10-01T10:58:14.912Z,6.20
2022-10-01T11:00:48.192Z,6.75
2022-10-01T11:03:17.433Z,6.82
2022-10-01T11:05:44.476Z,7.53
2022-10-01T11:08:23.790Z,4.70
2022-10-01T11:11:14.454Z,6.85
2022-10-01T11:13:40.939Z,7.30
2022-10-01T11:16:26.126Z,5.68
2022-10-01T11:19:01.607Z,4.78
2022-10-01T11:21:48.360Z,5.88
2022-10-01T11:24:36.696Z,5.13
2022-10-01T11:27:12.309Z,8.50
2022-10-01T11:30:05.480Z,5.80
2022-10-01T11:33:00.591Z,7.43
2022-10-01T11:35:50.626Z,5.75
2022-10-01T11:38:35.199Z,16.80
2022-10-01T11:41:24.864Z,6.03
2022-10-01T11:43:55.580Z,7.65
2022-10-01T11:47:09.525Z,5.60
2022-10-01T11:50:15.954Z,6.88
2022-10-01T11:52:56.619Z,8.20
2022-10-01T11:55:57.226Z,7.68
2022-10-01T11:58:48.541Z,6.25
2022-10-01T12:01:18.761Z,6.10
2022-10-01T12:03:54.338Z,7.68
2022-10-01T12:06:28.414Z,6.07
2022-10-01T12:09:11.919Z,3.83
2022-10-01T12:11:46.489Z,5.95
2022-10-01T12:14:19.783Z,6.60
2022-10-01T12:16:52.564Z,4.10
2022-10-01T12:19:23.156Z,5.25
2022-10-01T12:22:13.533Z,6.40
2022-10-01T12:24:42.919Z,5.38
2022-10-01T12:27:19.943Z,6.93
2022-10-01T12:29:52.513Z,5.18
2022-10-01T12:32:53.144Z,6.88
2022-10-01T12:36:04.356Z,3.75
2022-10-01T12:38:50.409Z,3.63
2022-10-01T12:41:26.029Z,8.23
2022-10-01T12:44:44.506Z,4.97
2022-10-01T12:47:21.695Z,10.30
2022-10-01T12:50:17.522Z,6.28
2022-10-01T12:52:59.450Z,5.45
2022-10-01T12:55:30.695Z,5.15
2022-10-01T12:58:12.852Z,4.57
2022-10-01T13:00:53.293Z,3.83
2022-10-01T13:03:38.270Z,6.13
2022-10-01T13:06:26.976Z,5.40
2022-10-01T13:09:12.379Z,4.90
2022-10-01T13:12:03.038Z,6.28
2022-10-01T13:14:33.075Z,11.57
2022-10-01T13:17:20.805Z,7.72
2022-10-01T13:22:45.386Z,4.75
2022-10-01T13:25:27.052Z,7.55
2022-10-01T13:27:58.341Z,4.28
2022-10-01T13:30:28.887Z,6.10
2022-10-01T13:32:58.332Z,8.32
2022-10-01T13:35:36.487Z,4.70
2022-10-01T13:38:17.077Z,5.38
2022-10-01T13:40:44.481Z,4.40
2022-10-01T13:43:20.402Z,10.25
2022-10-01T13:45:49.668Z,6.35
2022-10-01T13:48:22.039Z,11.95
2022-10-01T13:51:03.505Z,5.57
2022-10-01T13:53:33.430Z,8.43
2022-10-01T13:56:00.577Z,5.65
2022-10-01T13:58:30.049Z,47.63
2022-10-01T14:00:59.652Z,19.35
2022-10-01T14:03:30.143Z,8.25
2022-10-01T14:05:58.687Z,4.80
2022-10-01T14:08:39.141Z,4.30
2022-10-01T14:11:34.682Z,7.05
2022-10-01T14:14:30.952Z,7.25
2022-10-01T14:16:58.436Z,4.53
2022-10-01T14:19:27.390Z,4.45
2022-10-01T14:22:26.313Z,7.45
2022-10-01T14:25:11.524Z,4.90
2022-10-01T14:27:51.352Z,4.53
2022-10-01T14:30:24.390Z,6.35
2022-10-01T14:33:09.832Z,6.45
2022-10-01T14:35:56.581Z,6.78
2022-10-01T14:38:23.240Z,4.93
2022-10-01T14:43:31.309Z,5.63
2022-10-01T14:45:59.386Z,6.85
2022-10-01T14:48:29.065Z,7.20
2022-10-01T14:50:58.715Z,5.72
2022-10-01T14:53:32.243Z,4.30
2022-10-01T14:56:04.860Z,6.25
2022-10-01T14:58:39.312Z,6.32
2022-10-01T15:01:06.696Z,11.65
2022-10-01T15:03:38.609Z,5.22
2022-10-01T15:06:12.257Z,9.20
2022-10-01T15:08:41.584Z,6.22
2022-10-01T15:11:16.242Z,17.63
2022-10-01T15:13:44.899Z,6.05
2022-10-01T15:16:13.901Z,6.55
2022-10-01T15:19:01.474Z,21.05
2022-10-01T15:21:39.572Z,5.68
2022-10-01T15:24:16.319Z,4.80
2022-10-01T15:26:45.731Z,6.78
2022-10-01T15:29:14.559Z,7.88
2022-10-01T15:31:41.837Z,8.65
2022-10-01T15:34:15.217Z,6.18
2022-10-01T15:36:43.002Z,7.80
2022-10-01T15:39:21.273Z,5.70
2022-10-01T15:41:52.512Z,3.90
2022-10-01T15:44:39.245Z,5.80
2022-10-01T15:47:33.032Z,8.70
2022-10-01T15:50:06.776Z,5.13
2022-10-01T15:52:50.647Z,5.70
2022-10-01T15:55:49.443Z,4.15
2022-10-01T15:58:31.449Z,3.25
2022-10-01T16:01:09.337Z,3.83
2022-10-01T16:04:01.840Z,5.38
2022-10-01T16:06:35.974Z,3.80
2022-10-01T16:09:13.209Z,3.17
2022-10-01T16:14:23.481Z,4.00
2022-10-01T16:16:50.715Z,2.95
2022-10-01T16:19:30.348Z,6.82
2022-10-01T16:22:22.709Z,6.32
2022-10-01T16:24:55.007Z,9.88
2022-10-01T16:27:25.327Z,7.20
2022-10-01T16:30:09.078Z,4.18
2022-10-01T16:32:35.752Z,6.38
2022-10-01T16:37:50.813Z,5.10
2022-10-01T16:40:29.895Z,3.17
2022-10-01T16:42:58.311Z,4.20
2022-10-01T16:45:27.796Z,4.22
2022-10-01T16:47:58.020Z,4.70
2022-10-01T16:50:25.159Z,3.47
2022-10-01T16:52:53.371Z,6.78
2022-10-01T16:55:31.304Z,9.20
2022-10-01T16:57:58.161Z,3.92
2022-10-01T17:00:26.227Z,5.38
2022-10-01T17:02:54.709Z,4.35
2022-10-01T17:05:32.829Z,3.15
2022-10-01T17:08:00.951Z,3.72
2022-10-01T17:10:33.843Z,7.60
2022-10-01T17:13:01.979Z,14.18
2022-10-01T17:15:28.461Z,8.35
2022-10-01T17:17:56.911Z,31.00
2022-10-01T17:20:26.429Z,10.55
2022-10-01T17:22:52.937Z,6.78
2022-10-01T17:25:22.381Z,7.13
2022-10-01T17:27:49.231Z,4.78
2022-10-01T17:30:16.504Z,3.85
2022-10-01T17:32:43.354Z,4.65
2022-10-01T17:35:12.455Z,6.15
2022-10-01T17:37:39.783Z,17.15
2022-10-01T17:40:07.989Z,23.45
2022-10-01T17:42:35.606Z,19.40
2022-10-01T17:45:05.674Z,18.10
2022-10-01T17:47:32.245Z,8.77
2022-10-01T17:52:25.150Z,5.45
2022-10-01T17:54:51.621Z,3.90
2022-10-01T17:57:18.381Z,4.45
2022-10-01T17:59:44.800Z,5.22
2022-10-01T18:02:36.683Z,2.72
2022-10-01T18:04:59.904Z,2.60
2022-10-01T18:07:27.028Z,5.68
2022-10-01T18:09:53.895Z,8.57
2022-10-01T18:12:20.713Z,3.55
2022-10-01T18:14:47.682Z,3.88
2022-10-01T18:17:14.200Z,5.53
2022-10-01T18:19:56.056Z,4.20
2022-10-01T18:22:22.598Z,9.35
2022-10-01T18:27:15.550Z,5.05
2022-10-01T18:32:23.375Z,3.10
2022-10-01T18:35:00.501Z,4.57
2022-10-01T18:37:51.304Z,3.42
2022-10-01T18:40:36.693Z,3.85
2022-10-01T18:43:15.760Z,4.03
2022-10-01T18:46:20.600Z,5.95
2022-10-01T18:49:19.150Z,4.30
2022-10-01T18:51:57.663Z,5.57
2022-10-01T18:54:48.784Z,2.67
2022-10-01T18:57:41.844Z,3.53
2022-10-01T19:00:10.978Z,6.43
2022-10-01T19:03:05.422Z,7.60
2022-10-01T19:05:47.262Z,4.95
2022-10-01T19:08:29.294Z,5.93
2022-10-01T19:11:08.376Z,6.05
2022-10-01T19:14:16.543Z,5.13
2022-10-01T19:17:08.796Z,3.83
2022-10-01T19:20:14.945Z,7.10
2022-10-01T19:23:18.656Z,4.93
2022-10-01T19:26:03.304Z,6.72
2022-10-01T19:29:06.743Z,2.60
2022-10-01T19:31:45.899Z,3.75
2022-10-01T19:34:38.706Z,4.07
2022-10-01T19:37:12.767Z,3.80
2022-10-01T19:39:42.959Z,4.95
2022-10-01T19:42:33.147Z,3.60
2022-10-01T19:45:13.218Z,3.10
2022-10-01T19:47:46.829Z,6.53
2022-10-01T19:50:24.927Z,3.03
2022-10-01T19:52:55.565Z,4.75
2022-10-01T19:55:23.724Z,7.68
2022-10-01T19:57:50.543Z,6.40
2022-10-01T20:00:20.095Z,5.00
2022-10-01T20:02:53.944Z,4.28
2022-10-01T20:05:38.024Z,2.97
2022-10-01T20:08:27.602Z,2.45
2022-10-01T20:10:58.012Z,4.45
2022-10-01T20:13:49.125Z,4.45
2022-10-01T20:16:27.155Z,3.65
2022-10-01T20:19:04.877Z,4.35
2022-10-01T20:21:43.265Z,8.00
2022-10-01T20:24:49.962Z,4.32
2022-10-01T20:27:31.536Z,5.22
2022-10-01T20:30:11.917Z,7.45
2022-10-01T20:33:24.030Z,5.18
2022-10-01T20:36:02.141Z,3.55
2022-10-01T20:38:43.674Z,8.43
2022-10-01T20:41:15.137Z,8.68
2022-10-01T20:43:59.526Z,7.30
2022-10-01T20:46:47.145Z,4.50
2022-10-01T20:49:31.992Z,8.27
2022-10-01T20:52:01.046Z,6.45
2022-10-01T20:54:34.056Z,12.90
2022-10-01T20:57:17.639Z,11.35
2022-10-01T20:59:51.466Z,16.92
2022-10-01T21:02:34.945Z,11.30
2022-10-01T21:05:33.299Z,18.73
2022-10-01T21:08:05.142Z,9.05
2022-10-01T21:10:50.466Z,6.55
2022-10-01T21:13:41.334Z,17.13
2022-10-01T21:16:45.177Z,16.13
2022-10-01T21:19:27.082Z,12.05
2022-10-01T21:22:12.534Z,7.15
2022-10-01T21:25:06.427Z,5.43
2022-10-01T21:27:48.271Z,9.20
2022-10-01T21:30:17.488Z,11.15
2022-10-01T21:33:11.924Z,8.95
2022-10-01T21:35:47.381Z,12.15
2022-10-01T21:38:39.574Z,17.27
2022-10-01T21:41:18.673Z,7.55
2022-10-01T21:44:12.122Z,6.95
2022-10-01T21:47:03.473Z,19.38
2022-10-01T21:49:57.554Z,11.20
2022-10-01T21:52:26.860Z,35.05
2022-10-01T21:55:00.913Z,33.13
2022-10-01T21:58:02.046Z,11.70
2022-10-01T22:17:47.357Z,19.38
2022-10-01T22:20:16.935Z,23.33
2022-10-01T22:22:45.709Z,11.20
2022-10-01T22:25:13.733Z,13.15
2022-10-01T22:27:48.683Z,12.65
2022-10-01T22:30:21.370Z,15.07
2022-10-01T22:32:55.540Z,9.20
2022-10-01T22:35:28.391Z,17.25
2022-10-01T22:38:09.809Z,9.75
2022-10-01T22:40:42.063Z,10.40
2022-10-01T22:43:11.613Z,12.57
2022-10-01T22:46:04.243Z,17.77
2022-10-01T22:49:11.007Z,17.90
2022-10-01T22:52:09.568Z,6.13
2022-10-01T22:55:16.894Z,14.63
2022-10-01T22:58:12.414Z,14.50
2022-10-01T23:01:08.624Z,21.33
2022-10-01T23:03:35.384Z,16.88
2022-10-01T23:06:09.860Z,14.68
2022-10-01T23:08:49.663Z,18.35
2022-10-01T23:11:24.983Z,19.25
2022-10-01T23:14:06.622Z,10.77
2022-10-01T23:16:42.277Z,8.77
2022-10-01T23:19:27.947Z,18.15
2022-10-01T23:22:06.668Z,14.07
2022-10-01T23:24:53.116Z,6.85
2022-10-01T23:27:32.450Z,10.80
2022-10-01T23:30:09.877Z,16.73
2022-10-01T23:33:00.501Z,8.77
2022-10-01T23:35:42.805Z,11.43
2022-10-01T23:38:24.229Z,9.25
2022-10-01T23:40:55.620Z,11.45
2022-10-01T23:43:33.214Z,13.00
2022-10-01T23:46:11.386Z,8.40
2022-10-01T23:48:59.721Z,7.25
2022-10-01T23:51:47.787Z,8.57
2022-10-01T23:54:36.047Z,4.93
2022-10-01T23:57:21.072Z,9.55
2022-10-01T23:59:57.384Z,11.80
